Time;durP1;ratioP1;P1;durP2;ratioP2;P2;SDS_P1;SDS_P2;PMS_P1;PMS_P2;Temp;Humidity;BMP_temperature;BMP_pressure;BME280_temperature;BME280_humidity;BME280_pressure;Samples;Min_cycle;Max_cycle;Signal;HPM_P1;HPM_P2
2022/06/14 00:01:34;;;;;;;24.33;14.75;;;18.30;99.90;;;;;;5076603;28;20037;-59
2022/06/14 00:04:00;;;;;;;22.35;14.15;;;18.30;99.90;;;;;;5076727;28;20371;-59
2022/06/14 00:06:30;;;;;;;21.42;14.70;;;18.30;99.90;;;;;;5076941;28;20023;-59
2022/06/14 00:08:56;;;;;;;22.33;13.38;;;18.30;99.90;;;;;;5076901;28;20020;-59
2022/06/14 00:11:29;;;;;;;25.48;13.18;;;18.40;99.90;;;;;;5077011;28;20078;-59
2022/06/14 00:13:56;;;;;;;28.35;14.32;;;18.40;99.90;;;;;;5076831;28;20063;-59
2022/06/14 00:16:24;;;;;;;23.85;14.02;;;18.50;99.90;;;;;;5076650;28;20032;-59
2022/06/14 00:18:50;;;;;;;28.63;13.98;;;18.50;99.90;;;;;;5076674;28;20071;-59
2022/06/14 00:21:16;;;;;;;26.38;13.48;;;18.50;99.90;;;;;;5076723;28;20033;-59
2022/06/14 00:23:42;;;;;;;22.08;13.18;;;18.50;99.90;;;;;;5076681;28;20070;-59
2022/06/14 00:26:11;;;;;;;18.20;11.57;;;18.60;99.90;;;;;;5075383;28;20501;-59
2022/06/14 00:28:38;;;;;;;28.73;12.15;;;18.50;99.90;;;;;;5076277;28;20028;-59
2022/06/14 00:31:09;;;;;;;19.80;11.13;;;18.50;99.90;;;;;;5076410;28;20433;-59
2022/06/14 00:33:35;;;;;;;20.10;11.32;;;18.60;99.90;;;;;;5076514;28;20060;-59
2022/06/14 00:36:05;;;;;;;19.42;11.05;;;18.60;99.90;;;;;;5076459;28;20288;-59
2022/06/14 00:38:33;;;;;;;18.08;10.88;;;18.60;99.90;;;;;;5076403;28;20099;-59
2022/06/14 00:41:00;;;;;;;16.73;10.63;;;18.60;99.90;;;;;;5076460;28;20378;-59
2022/06/14 00:43:29;;;;;;;20.73;10.45;;;18.60;99.90;;;;;;5076103;28;20139;-59
2022/06/14 00:46:12;;;;;;;18.80;10.32;;;18.70;99.90;;;;;;5076231;28;20052;-59
2022/06/14 00:48:41;;;;;;;16.13;10.07;;;18.60;99.90;;;;;;5076268;28;20028;-59
2022/06/14 00:51:23;;;;;;;14.88;9.00;;;18.70;99.90;;;;;;5075821;28;20024;-59
2022/06/14 00:53:59;;;;;;;15.13;8.85;;;18.70;99.90;;;;;;5076032;28;20085;-59
2022/06/14 00:56:35;;;;;;;17.75;8.63;;;18.70;99.90;;;;;;5075941;28;20029;-59
2022/06/14 00:59:24;;;;;;;10.73;7.95;;;18.70;99.90;;;;;;5075861;28;20032;-59
2022/06/14 01:01:56;;;;;;;12.65;7.43;;;18.70;99.90;;;;;;5075813;28;20046;-59
2022/06/14 01:04:27;;;;;;;12.43;7.55;;;18.70;99.90;;;;;;5075527;28;20432;-59
2022/06/14 01:07:06;;;;;;;13.75;6.63;;;18.70;99.90;;;;;;5075681;28;20028;-59
2022/06/14 01:09:53;;;;;;;15.30;7.88;;;18.70;99.90;;;;;;5075949;28;20037;-59
2022/06/14 01:12:22;;;;;;;13.85;6.80;;;18.70;99.90;;;;;;5075687;28;20025;-59
2022/06/14 01:15:05;;;;;;;19.00;6.72;;;18.70;99.90;;;;;;5075523;28;20903;-59
2022/06/14 01:17:40;;;;;;;12.95;5.95;;;18.80;99.90;;;;;;5075644;28;20035;-59
2022/06/14 01:20:06;;;;;;;11.55;5.80;;;18.80;99.90;;;;;;5075322;28;20040;-59
2022/06/14 01:22:32;;;;;;;12.57;5.72;;;18.80;99.90;;;;;;5075581;28;20062;-59
2022/06/14 01:25:00;;;;;;;9.15;5.65;;;18.80;99.90;;;;;;5075449;28;20355;-59
2022/06/14 01:27:27;;;;;;;10.63;4.75;;;18.80;99.90;;;;;;5075217;28;20055;-59
2022/06/14 01:30:02;;;;;;;8.98;4.80;;;18.80;99.90;;;;;;5075424;28;20029;-59
2022/06/14 01:32:32;;;;;;;9.88;3.80;;;18.80;99.90;;;;;;5075464;28;20028;-59
2022/06/14 01:35:02;;;;;;;9.30;3.60;;;18.80;99.90;;;;;;5075257;28;20025;-59
2022/06/14 01:37:29;;;;;;;10.02;3.90;;;18.80;99.90;;;;;;5075254;28;20572;-59
2022/06/14 01:39:56;;;;;;;7.05;3.17;;;18.80;99.90;;;;;;5074612;28;20066;-59
2022/06/14 01:42:47;;;;;;;7.93;3.58;;;18.90;99.90;;;;;;5074947;28;20131;-59
2022/06/14 01:45:31;;;;;;;6.60;3.08;;;18.90;99.90;;;;;;5075122;28;20028;-59
2022/06/14 01:48:00;;;;;;;5.20;2.72;;;18.90;99.90;;;;;;5074994;28;20080;-59
2022/06/14 01:53:55;;;;;;;7.80;2.88;;;18.90;99.90;;;;;;5074912;28;20083;-59
2022/06/14 01:56:52;;;;;;;5.97;2.97;;;18.90;99.90;;;;;;5074673;28;20026;-59
2022/06/14 01:59:47;;;;;;;3.08;2.60;;;18.90;99.90;;;;;;5074940;28;20031;-59
2022/06/14 02:02:34;;;;;;;4.43;2.60;;;18.90;99.90;;;;;;5055872;28;20056;-59
2022/06/14 02:05:31;;;;;;;5.50;3.10;;;18.90;99.90;;;;;;5074676;28;20024;-59
2022/06/14 02:08:01;;;;;;;6.78;2.50;;;18.90;99.90;;;;;;5074672;28;20025;-59
2022/06/14 02:10:40;;;;;;;2.93;2.50;;;18.80;99.90;;;;;;5074601;28;20467;-59
2022/06/14 02:13:19;;;;;;;6.53;2.80;;;18.80;99.90;;;;;;5074609;28;20261;-59
2022/06/14 02:15:51;;;;;;;3.75;2.40;;;18.80;99.90;;;;;;5074518;28;20432;-59
2022/06/14 02:18:28;;;;;;;3.05;2.15;;;18.80;99.90;;;;;;5074503;28;20093;-59
2022/06/14 02:21:18;;;;;;;3.13;2.13;;;18.80;99.90;;;;;;5074592;28;20024;-59
2022/06/14 02:24:06;;;;;;;4.50;2.27;;;18.80;99.90;;;;;;5074515;28;20048;-59
2022/06/14 02:26:39;;;;;;;2.38;1.90;;;18.80;99.90;;;;;;5074429;28;20359;-59
2022/06/14 02:29:26;;;;;;;6.20;2.42;;;18.70;99.90;;;;;;5074865;28;20031;-59
2022/06/14 02:32:15;;;;;;;3.38;2.20;;;18.80;99.90;;;;;;5074111;28;20032;-59
2022/06/14 02:34:53;;;;;;;5.32;2.10;;;18.80;99.90;;;;;;5074423;28;20036;-59
2022/06/14 02:37:24;;;;;;;3.58;2.10;;;18.80;99.90;;;;;;5074368;28;20052;-59
2022/06/14 02:39:59;;;;;;;5.10;2.42;;;18.80;99.90;;;;;;5074336;28;20029;-59
2022/06/14 02:42:33;;;;;;;3.08;1.98;;;18.70;99.90;;;;;;5074226;28;20052;-59
2022/06/14 02:45:23;;;;;;;3.53;2.15;;;18.70;99.90;;;;;;5074165;28;20046;-59
2022/06/14 02:48:14;;;;;;;11.73;3.13;;;18.70;99.90;;;;;;5074332;28;20017;-59
2022/06/14 02:50:53;;;;;;;6.22;2.28;;;18.60;99.90;;;;;;5069987;28;20048;-59
2022/06/14 02:53:27;;;;;;;5.00;2.63;;;18.60;99.90;;;;;;5078362;28;20059;-59
2022/06/14 02:56:03;;;;;;;6.32;2.10;;;18.50;99.90;;;;;;5078294;28;20110;-59
2022/06/14 02:59:00;;;;;;;2.65;1.75;;;18.40;99.90;;;;;;5078329;28;20020;-59
2022/06/14 03:01:45;;;;;;;3.95;2.20;;;18.40;99.90;;;;;;5078200;28;20052;-59
2022/06/14 03:04:34;;;;;;;7.38;2.40;;;18.40;99.90;;;;;;5078108;28;20067;-59
2022/06/14 03:07:03;;;;;;;4.95;2.33;;;18.40;99.90;;;;;;5077978;28;20020;-59
2022/06/14 03:09:31;;;;;;;7.90;2.97;;;18.30;99.90;;;;;;5078292;28;20028;-59
2022/06/14 03:12:06;;;;;;;4.47;2.22;;;18.30;99.90;;;;;;5078112;28;20032;-59
2022/06/14 03:15:02;;;;;;;8.23;2.25;;;18.40;99.90;;;;;;5077814;28;20086;-59
2022/06/14 03:17:31;;;;;;;6.35;2.05;;;18.20;99.90;;;;;;5077960;28;20029;-59
2022/06/14 03:20:12;;;;;;;3.92;2.10;;;18.10;99.90;;;;;;5077653;28;20025;-59
2022/06/14 03:23:00;;;;;;;4.25;2.10;;;18.20;99.90;;;;;;5077987;28;20091;-59
2022/06/14 03:26:02;;;;;;;2.92;1.80;;;18.20;99.90;;;;;;5077720;28;20078;-59
2022/06/14 03:28:40;;;;;;;5.65;2.10;;;18.20;99.90;;;;;;5070576;28;20033;-59
2022/06/14 03:31:18;;;;;;;6.50;2.30;;;18.10;99.90;;;;;;5077613;28;20478;-59
2022/06/14 03:34:04;;;;;;;6.13;2.65;;;18.00;99.90;;;;;;5077567;28;20090;-59
2022/06/14 03:36:30;;;;;;;4.63;2.03;;;17.90;99.90;;;;;;5077579;28;20034;-59
2022/06/14 03:39:08;;;;;;;6.97;2.25;;;17.90;99.90;;;;;;5077486;28;20108;-59
2022/06/14 03:41:38;;;;;;;7.18;2.58;;;17.90;99.90;;;;;;5077407;28;20029;-59
2022/06/14 03:44:05;;;;;;;7.65;2.20;;;17.80;99.90;;;;;;5077232;28;20031;-59
2022/06/14 03:46:35;;;;;;;3.45;2.38;;;17.80;99.90;;;;;;5077615;28;20069;-59
2022/06/14 03:49:12;;;;;;;6.13;2.47;;;17.80;99.90;;;;;;5077349;28;20020;-59
2022/06/14 03:52:17;;;;;;;4.82;2.15;;;17.70;99.90;;;;;;5076995;28;20052;-59
2022/06/14 03:54:43;;;;;;;5.38;2.70;;;17.70;99.90;;;;;;5077144;28;20047;-59
2022/06/14 03:57:34;;;;;;;3.40;1.75;;;17.70;99.90;;;;;;5077140;28;20021;-59
2022/06/14 04:00:05;;;;;;;;;;;17.70;99.90;;;;;;5077558;28;20033;-59
2022/06/14 04:02:53;;;;;;;5.63;2.63;;;17.60;99.90;;;;;;5076231;28;19912;-59
2022/06/14 04:05:25;;;;;;;11.65;3.33;;;17.70;99.90;;;;;;5076953;28;20028;-59
2022/06/14 04:08:13;;;;;;;14.23;3.83;;;17.70;99.90;;;;;;5076950;28;20031;-59
2022/06/14 04:10:47;;;;;;;5.28;2.35;;;17.70;99.90;;;;;;5076752;28;20025;-59
2022/06/14 04:13:57;;;;;;;6.70;2.72;;;17.70;99.90;;;;;;5076898;28;20078;-59
2022/06/14 04:16:30;;;;;;;5.30;2.53;;;17.70;99.90;;;;;;5071029;28;20059;-59
2022/06/14 04:19:24;;;;;;;7.97;2.22;;;17.70;99.90;;;;;;5076467;28;20273;-59
2022/06/14 04:21:57;;;;;;;6.53;2.40;;;17.80;99.90;;;;;;5076762;28;20572;-59
2022/06/14 04:24:35;;;;;;;9.43;2.90;;;17.70;99.90;;;;;;5076431;28;20024;-59
2022/06/14 04:27:18;;;;;;;10.32;2.70;;;17.70;99.90;;;;;;5076506;28;20044;-59
2022/06/14 04:30:11;;;;;;;7.05;2.80;;;17.70;99.90;;;;;;5076738;28;20024;-59
2022/06/14 04:32:43;;;;;;;8.02;3.70;;;17.60;99.90;;;;;;5076266;28;20031;-59
2022/06/14 04:35:32;;;;;;;8.35;3.08;;;17.70;99.90;;;;;;5076404;28;20382;-59
2022/06/14 04:38:22;;;;;;;12.57;4.53;;;17.60;99.90;;;;;;5076375;28;20043;-59
2022/06/14 04:41:12;;;;;;;8.10;3.77;;;17.60;99.90;;;;;;5076014;28;20070;-59
2022/06/14 04:43:49;;;;;;;6.27;3.60;;;17.60;99.90;;;;;;5076500;28;20630;-59
2022/06/14 04:46:20;;;;;;;7.20;3.50;;;17.60;99.90;;;;;;5076187;28;20024;-59
2022/06/14 04:48:49;;;;;;;8.00;3.70;;;17.60;99.90;;;;;;5076228;28;20021;-59
2022/06/14 04:51:31;;;;;;;8.65;3.17;;;17.70;99.90;;;;;;5075908;28;20051;-59
2022/06/14 04:54:12;;;;;;;11.25;3.65;;;17.70;99.90;;;;;;5076010;28;20032;-59
2022/06/14 04:56:46;;;;;;;9.27;2.97;;;17.60;99.90;;;;;;5075947;28;20041;-59
2022/06/14 04:59:16;;;;;;;4.70;3.03;;;17.60;99.90;;;;;;5076003;28;20024;-59
2022/06/14 05:02:16;;;;;;;6.72;3.00;;;17.60;99.90;;;;;;5075845;28;20035;-59
2022/06/14 05:04:51;;;;;;;8.67;3.23;;;17.60;99.90;;;;;;5068157;28;20048;-59
2022/06/14 05:07:27;;;;;;;5.70;3.30;;;17.60;99.90;;;;;;5075602;28;20481;-59
2022/06/14 05:10:02;;;;;;;6.30;3.10;;;17.60;99.90;;;;;;5075639;28;20024;-59
2022/06/14 05:12:28;;;;;;;5.90;4.10;;;17.50;99.90;;;;;;5074728;28;20032;-59
2022/06/14 05:15:17;;;;;;;12.90;4.38;;;17.50;99.90;;;;;;5073147;28;20033;-59
2022/06/14 05:17:49;;;;;;;12.93;5.47;;;17.60;99.90;;;;;;5072923;28;20039;-59
2022/06/14 05:20:41;;;;;;;10.73;4.35;;;17.60;99.90;;;;;;5077939;28;20025;-59
2022/06/14 05:23:21;;;;;;;10.68;4.03;;;17.60;99.90;;;;;;5071166;28;20065;-59
2022/06/14 05:25:54;;;;;;;7.72;3.90;;;17.60;99.90;;;;;;5072853;28;20033;-59
2022/06/14 05:28:55;;;;;;;8.70;4.20;;;17.60;99.90;;;;;;5071600;28;20068;-59
2022/06/14 05:31:40;;;;;;;8.20;3.40;;;17.60;99.90;;;;;;5065681;28;20032;-59
2022/06/14 05:34:14;;;;;;;8.75;4.20;;;17.50;99.90;;;;;;5073842;28;20159;-58
2022/06/14 05:37:03;;;;;;;5.18;3.33;;;17.60;99.90;;;;;;5074142;28;20028;-58
2022/06/14 05:39:42;;;;;;;6.32;3.20;;;17.50;99.90;;;;;;5058475;28;20032;-58
2022/06/14 05:42:17;;;;;;;8.95;4.15;;;17.60;99.90;;;;;;5073963;28;20039;-58
2022/06/14 05:44:46;;;;;;;9.15;5.18;;;17.50;99.90;;;;;;5104124;28;20028;-59
2022/06/14 05:47:16;;;;;;;7.03;3.70;;;17.60;99.90;;;;;;5104237;28;20052;-58
2022/06/14 05:49:52;;;;;;;12.95;4.88;;;17.70;99.90;;;;;;5075092;28;20392;-58
2022/06/14 05:52:33;;;;;;;8.40;4.10;;;17.70;99.90;;;;;;5071268;28;20045;-58
2022/06/14 05:55:26;;;;;;;5.78;3.97;;;17.80;99.90;;;;;;5074099;28;20051;-58
2022/06/14 05:57:57;;;;;;;8.50;5.40;;;18.00;99.90;;;;;;5073595;28;20047;-58
2022/06/14 06:00:43;;;;;;;6.75;3.58;;;18.00;99.90;;;;;;5073409;28;20040;-59
2022/06/14 06:03:15;;;;;;;6.88;3.92;;;17.80;99.90;;;;;;5072604;28;20182;-58
2022/06/14 06:05:55;;;;;;;8.23;4.18;;;17.80;99.90;;;;;;5072940;28;20082;-58
2022/06/14 06:08:41;;;;;;;26.17;9.82;;;17.90;99.90;;;;;;5073461;28;20434;-58
2022/06/14 06:11:26;;;;;;;17.30;6.03;;;18.00;99.90;;;;;;5062391;28;20032;-58
2022/06/14 06:14:28;;;;;;;11.45;4.78;;;18.10;99.90;;;;;;5072552;28;20032;-59
2022/06/14 06:17:05;;;;;;;12.23;5.05;;;18.20;99.90;;;;;;5056242;28;20083;-59
2022/06/14 06:19:50;;;;;;;15.02;7.13;;;18.20;99.90;;;;;;5072442;28;20035;-59
2022/06/14 06:22:34;;;;;;;16.52;6.53;;;18.20;99.90;;;;;;5055010;28;20457;-59
2022/06/14 06:25:07;;;;;;;19.33;5.97;;;18.30;99.90;;;;;;5070562;28;20032;-59
2022/06/14 06:27:44;;;;;;;22.70;6.80;;;18.40;99.90;;;;;;5070076;28;20409;-59
2022/06/14 06:30:17;;;;;;;26.55;6.65;;;18.50;99.90;;;;;;5067282;28;20086;-60
2022/06/14 06:32:44;;;;;;;19.13;5.55;;;18.60;99.90;;;;;;5070155;28;20036;-60
2022/06/14 06:35:11;;;;;;;28.95;10.88;;;18.60;99.90;;;;;;5070530;28;20025;-60
2022/06/14 06:37:41;;;;;;;19.17;6.13;;;18.60;99.90;;;;;;5071195;28;20043;-60
2022/06/14 06:40:20;;;;;;;20.83;5.43;;;18.70;99.90;;;;;;5072279;28;20040;-60
2022/06/14 06:43:00;;;;;;;8.88;4.00;;;18.80;99.90;;;;;;5073086;28;20115;-60
2022/06/14 06:45:38;;;;;;;14.10;4.13;;;18.90;99.90;;;;;;5072117;28;20513;-60
2022/06/14 06:48:18;;;;;;;17.77;5.07;;;19.00;99.90;;;;;;5073763;28;20397;-59
2022/06/14 06:50:53;;;;;;;17.35;3.88;;;19.10;99.90;;;;;;5070389;28;20078;-60
2022/06/14 06:53:21;;;;;;;6.82;3.10;;;19.30;99.90;;;;;;5070625;28;20033;-59
2022/06/14 06:56:10;;;;;;;6.40;2.70;;;19.40;99.90;;;;;;5069735;28;20079;-60
2022/06/14 06:58:41;;;;;;;7.45;2.45;;;19.70;99.90;;;;;;5070430;28;20039;-60
2022/06/14 07:01:41;;;;;;;12.88;3.53;;;19.80;99.90;;;;;;5073197;28;20393;-59
2022/06/14 07:05:02;;;;;;;22.13;5.60;;;20.00;99.90;;;;;;5049010;28;20037;-60
2022/06/14 07:07:14;;;;;;;10.38;4.13;;;20.10;99.90;;;;;;5072231;28;20104;-61
2022/06/14 07:09:59;;;;;;;11.27;3.38;;;20.10;99.90;;;;;;5087432;28;20029;-59
2022/06/14 07:12:34;;;;;;;14.40;4.22;;;20.10;99.90;;;;;;5073290;28;20028;-59
2022/06/14 07:15:05;;;;;;;16.90;8.10;;;20.20;99.90;;;;;;5072311;28;20108;-60
2022/06/14 07:17:40;;;;;;;21.45;7.50;;;20.30;99.90;;;;;;5081560;28;20020;-59
2022/06/14 07:20:14;;;;;;;17.55;8.23;;;20.40;99.90;;;;;;5080115;28;20037;-59
2022/06/14 07:22:51;;;;;;;21.88;7.88;;;20.50;99.90;;;;;;5069154;28;20496;-59
2022/06/14 07:25:32;;;;;;;14.77;6.30;;;20.70;99.90;;;;;;5069315;28;20094;-60
2022/06/14 07:28:11;;;;;;;17.02;6.13;;;20.80;98.80;;;;;;5070727;28;20062;-58
2022/06/14 07:30:49;;;;;;;14.18;7.13;;;21.10;95.90;;;;;;5072184;28;20016;-58
2022/06/14 07:33:17;;;;;;;18.05;6.70;;;21.40;93.40;;;;;;5074067;28;20028;-60
2022/06/14 07:35:51;;;;;;;17.02;5.63;;;21.40;93.10;;;;;;5074083;28;20039;-62
2022/06/14 07:38:20;;;;;;;16.80;5.05;;;21.50;91.80;;;;;;5072599;28;20063;-59
2022/06/14 07:40:57;;;;;;;17.73;5.03;;;21.70;85.30;;;;;;5077180;28;20031;-59
2022/06/14 07:43:35;;;;;;;9.98;5.07;;;21.60;82.30;;;;;;5067398;28;20025;-59
2022/06/14 07:46:10;;;;;;;11.18;4.72;;;21.70;83.20;;;;;;5074001;28;20116;-60
2022/06/14 07:48:45;;;;;;;9.32;4.60;;;22.00;88.30;;;;;;5072119;28;20087;-60
2022/06/14 07:51:25;;;;;;;25.90;6.53;;;22.50;94.10;;;;;;5074038;28;20054;-59
2022/06/14 07:54:00;;;;;;;10.60;5.47;;;23.10;82.30;;;;;;5070891;28;20074;-60
2022/06/14 07:56:45;;;;;;;13.68;5.07;;;23.60;85.10;;;;;;5075844;28;20395;-59
2022/06/14 07:59:16;;;;;;;13.45;5.22;;;24.10;60.70;;;;;;5075152;28;20155;-59
2022/06/14 08:01:56;;;;;;;14.38;6.45;;;24.60;62.50;;;;;;5090905;28;20032;-59
2022/06/14 08:04:34;;;;;;;22.77;7.57;;;24.60;57.80;;;;;;5075914;28;20094;-59
2022/06/14 08:07:02;;;;;;;16.33;7.25;;;25.10;60.50;;;;;;5076445;28;20028;-59
2022/06/14 08:10:12;;;;;;;17.58;7.20;;;25.10;56.20;;;;;;5076767;28;20099;-60
2022/06/14 08:12:50;;;;;;;15.07;6.25;;;25.30;57.50;;;;;;5014374;28;20091;-60
2022/06/14 08:15:25;;;;;;;19.85;8.40;;;25.60;61.30;;;;;;5014342;28;20038;-60
2022/06/14 08:17:54;;;;;;;11.38;5.72;;;25.70;55.70;;;;;;5014408;28;20037;-59
2022/06/14 08:20:26;;;;;;;12.57;6.33;;;26.20;55.80;;;;;;5013823;28;20123;-59
2022/06/14 08:23:00;;;;;;;12.20;6.30;;;26.60;55.00;;;;;;5014012;28;20036;-60
2022/06/14 08:25:32;;;;;;;15.73;6.30;;;26.70;52.40;;;;;;5014035;28;20463;-60
2022/06/14 08:28:23;;;;;;;18.73;8.05;;;26.80;49.60;;;;;;5014208;28;20112;-59
2022/06/14 08:31:04;;;;;;;16.02;7.35;;;26.00;52.00;;;;;;5012821;28;20057;-59
2022/06/14 08:33:53;;;;;;;19.17;7.82;;;26.40;51.80;;;;;;5013743;28;20038;-59
2022/06/14 08:36:29;;;;;;;20.45;8.55;;;25.20;51.00;;;;;;5011475;28;20368;-59
2022/06/14 08:39:02;;;;;;;16.90;8.68;;;25.50;53.50;;;;;;5018781;28;20033;-59
2022/06/14 08:41:41;;;;;;;20.38;8.57;;;26.10;50.40;;;;;;5009516;28;20025;-59
2022/06/14 08:44:18;;;;;;;20.77;8.07;;;26.40;52.70;;;;;;5012079;28;20100;-59
2022/06/14 08:47:09;;;;;;;21.20;7.78;;;26.50;49.90;;;;;;5047899;28;20697;-61
2022/06/14 08:49:52;;;;;;;17.38;6.75;;;26.40;50.30;;;;;;5075947;28;20036;-60
2022/06/14 08:53:00;;;;;;;21.40;6.53;;;26.50;48.60;;;;;;5074129;28;20505;-60
2022/06/14 08:56:02;;;;;;;17.63;8.15;;;26.60;47.80;;;;;;5066221;28;20055;-60
2022/06/14 08:58:46;;;;;;;13.75;6.65;;;26.80;49.80;;;;;;5074023;28;20024;-60
2022/06/14 09:01:27;;;;;;;18.92;7.07;;;27.10;47.40;;;;;;5070886;28;21280;-60
2022/06/14 09:04:31;;;;;;;14.98;6.43;;;27.50;48.60;;;;;;5073962;28;20024;-59
2022/06/14 09:07:13;;;;;;;15.35;4.25;;;27.70;46.60;;;;;;5074568;28;20031;-59
2022/06/14 09:10:09;;;;;;;15.48;5.30;;;27.90;44.80;;;;;;5072770;28;20048;-60
2022/06/14 09:13:05;;;;;;;10.70;3.97;;;28.20;44.10;;;;;;5070162;28;20063;-60
2022/06/14 09:15:55;;;;;;;6.18;3.05;;;27.90;40.80;;;;;;5071109;28;20035;-59
2022/06/14 09:18:21;;;;;;;10.07;4.07;;;28.20;42.70;;;;;;5072717;28;20020;-58
2022/06/14 09:20:55;;;;;;;8.45;3.72;;;28.20;41.30;;;;;;5073982;28;20294;-59
2022/06/14 09:23:33;;;;;;;8.40;2.67;;;28.00;41.30;;;;;;5070486;28;20107;-59
2022/06/14 09:26:09;;;;;;;7.07;2.83;;;28.10;40.10;;;;;;5072322;28;20095;-59
2022/06/14 09:28:47;;;;;;;7.75;2.22;;;28.20;40.30;;;;;;5073962;28;20032;-59
2022/06/14 09:31:34;;;;;;;8.88;2.83;;;28.10;40.70;;;;;;5087990;28;20024;-59
2022/06/14 09:34:19;;;;;;;4.90;1.98;;;28.00;40.70;;;;;;5072970;28;20185;-59
2022/06/14 09:37:15;;;;;;;4.68;2.00;;;28.10;42.80;;;;;;5073886;28;20039;-60
2022/06/14 09:40:16;;;;;;;2.78;1.65;;;28.20;40.70;;;;;;5073177;28;20032;-60
2022/06/14 09:42:42;;;;;;;4.95;1.70;;;28.20;40.80;;;;;;5069660;28;20032;-59
2022/06/14 09:45:31;;;;;;;3.80;1.75;;;28.30;42.20;;;;;;5073040;28;20101;-60
2022/06/14 09:48:26;;;;;;;3.97;2.03;;;28.50;39.70;;;;;;5073453;28;20074;-60
2022/06/14 09:51:24;;;;;;;4.05;1.92;;;28.80;42.80;;;;;;5071890;28;20032;-59
2022/06/14 09:54:08;;;;;;;5.78;1.90;;;28.20;38.30;;;;;;5073497;28;20385;-60
2022/06/14 09:57:15;;;;;;;9.35;2.33;;;28.10;39.30;;;;;;5071800;28;20039;-60
2022/06/14 09:59:50;;;;;;;10.55;2.72;;;28.40;41.80;;;;;;5064762;28;20036;-60
2022/06/14 10:02:34;;;;;;;7.30;2.03;;;28.30;39.00;;;;;;5070115;28;20086;-60
2022/06/14 10:05:19;;;;;;;2.28;1.30;;;28.60;40.30;;;;;;5072394;28;20073;-59
2022/06/14 10:08:17;;;;;;;5.97;1.60;;;28.70;42.90;;;;;;5071066;28;20036;-60
2022/06/14 10:10:48;;;;;;;3.97;1.25;;;29.00;41.60;;;;;;5068798;28;20017;-60
2022/06/14 10:13:17;;;;;;;;;;;29.20;38.70;;;;;;5071663;28;20081;-59
2022/06/14 10:15:58;;;;;;;4.15;1.35;;;29.20;38.70;;;;;;5071698;28;19912;-60
2022/06/14 10:18:26;;;;;;;3.85;1.40;;;29.40;39.30;;;;;;5070168;28;20039;-59
2022/06/14 10:21:05;;;;;;;7.80;1.77;;;29.60;38.00;;;;;;5073683;28;20298;-60
2022/06/14 10:23:46;;;;;;;4.03;1.02;;;29.40;37.30;;;;;;5071476;28;20016;-60
2022/06/14 10:29:51;;;;;;;2.75;1.30;;;29.00;35.40;;;;;;5073105;28;20476;-60
2022/06/14 10:32:44;;;;;;;3.40;1.50;;;27.60;35.70;;;;;;5073454;28;20052;-56
2022/06/14 10:35:32;;;;;;;5.53;1.90;;;28.00;37.60;;;;;;5073006;28;20021;-56
2022/06/14 10:38:17;;;;;;;2.35;1.30;;;28.40;38.20;;;;;;5074129;28;20025;-56
2022/06/14 10:40:54;;;;;;;3.38;1.30;;;28.50;38.00;;;;;;5073529;28;20378;-56
2022/06/14 10:43:46;;;;;;;2.67;1.15;;;29.20;38.30;;;;;;5073097;28;20028;-56
2022/06/14 10:46:17;;;;;;;14.38;3.53;;;29.40;36.40;;;;;;5066482;28;20064;-56
2022/06/14 10:49:14;;;;;;;2.88;2.13;;;28.40;36.70;;;;;;5073913;28;20060;-56
2022/06/14 10:52:14;;;;;;;4.90;1.77;;;27.40;36.80;;;;;;5029284;28;1273880;-56
2022/06/14 10:54:59;;;;;;;7.35;2.20;;;28.10;38.50;;;;;;5072058;28;20421;-55
2022/06/14 10:57:51;;;;;;;2.80;1.20;;;28.70;40.20;;;;;;5073229;28;20031;-56
2022/06/14 11:00:47;;;;;;;5.30;1.80;;;28.40;34.60;;;;;;5052876;28;20033;-56
2022/06/14 11:03:32;;;;;;;3.47;1.70;;;28.70;36.90;;;;;;5069667;28;20322;-56
2022/06/14 11:06:13;;;;;;;3.78;1.60;;;28.40;37.00;;;;;;5072842;28;20013;-56
2022/06/14 11:08:58;;;;;;;2.33;1.40;;;29.30;39.10;;;;;;5071881;28;20112;-56
2022/06/14 11:11:36;;;;;;;6.70;1.70;;;29.40;36.80;;;;;;5070546;28;20025;-56
2022/06/14 11:14:17;;;;;;;7.28;1.73;;;29.60;36.10;;;;;;5076819;28;20074;-56
2022/06/14 11:17:02;;;;;;;4.93;1.60;;;29.50;35.50;;;;;;5076708;28;20025;-56
2022/06/14 11:19:40;;;;;;;4.05;1.58;;;29.50;38.40;;;;;;5074895;28;20035;-56
2022/06/14 11:22:19;;;;;;;6.43;1.75;;;29.30;37.30;;;;;;5076267;28;20437;-56
2022/06/14 11:24:45;;;;;;;2.38;1.25;;;29.70;37.40;;;;;;5077323;28;20082;-56
2022/06/14 11:27:23;;;;;;;7.30;2.33;;;29.70;30.90;;;;;;5077240;28;20119;-56
2022/06/14 11:30:32;;;;;;;7.28;2.05;;;30.30;37.90;;;;;;5076735;28;20615;-56
2022/06/14 11:33:35;;;;;;;4.53;1.70;;;30.50;32.00;;;;;;5075935;28;20060;-56
2022/06/14 11:36:07;;;;;;;5.32;1.60;;;28.60;31.90;;;;;;5074869;28;20029;-56
2022/06/14 11:39:09;;;;;;;3.45;1.50;;;28.50;31.60;;;;;;5074576;28;20594;-56
2022/06/14 11:41:46;;;;;;;2.92;1.20;;;29.60;34.60;;;;;;5072076;28;20028;-56
2022/06/14 11:44:43;;;;;;;3.25;1.40;;;30.30;35.80;;;;;;5059873;28;20179;-56
2022/06/14 11:47:33;;;;;;;4.70;1.98;;;30.60;34.40;;;;;;5074429;28;20025;-56
2022/06/14 11:50:18;;;;;;;7.63;1.85;;;30.70;32.60;;;;;;5075653;28;20486;-56
2022/06/14 11:53:16;;;;;;;9.10;1.98;;;30.80;35.20;;;;;;5074483;28;20517;-55
2022/06/14 11:56:17;;;;;;;5.03;1.88;;;31.00;34.80;;;;;;5071531;28;20187;-55
2022/06/14 11:59:16;;;;;;;4.95;1.83;;;30.80;32.40;;;;;;5072112;28;20381;-55
2022/06/14 12:02:12;;;;;;;10.50;2.00;;;29.90;33.30;;;;;;5074553;28;20024;-55
2022/06/14 12:04:59;;;;;;;3.42;2.45;;;29.70;31.90;;;;;;5073743;28;20028;-55
2022/06/14 12:07:39;;;;;;;7.65;4.90;;;30.20;31.40;;;;;;5076456;28;20024;-55
2022/06/14 12:10:32;;;;;;;3.22;1.35;;;29.70;31.40;;;;;;5073870;28;20136;-55
2022/06/14 12:13:11;;;;;;;4.22;1.70;;;29.50;32.50;;;;;;5073303;28;20500;-55
2022/06/14 12:15:58;;;;;;;13.18;3.45;;;29.60;32.40;;;;;;5073997;28;20032;-55
2022/06/14 12:18:27;;;;;;;8.40;2.80;;;29.80;31.90;;;;;;5076312;28;20040;-55
2022/06/14 12:21:02;;;;;;;4.23;1.50;;;29.20;32.20;;;;;;5084647;28;20437;-55
2022/06/14 12:23:51;;;;;;;26.85;3.13;;;29.50;29.30;;;;;;5076073;28;20500;-55
2022/06/14 12:26:37;;;;;;;7.15;1.83;;;29.30;32.70;;;;;;5076182;28;20353;-55
2022/06/14 12:29:20;;;;;;;12.27;2.88;;;29.00;31.60;;;;;;5074167;28;20052;-55
2022/06/14 12:32:10;;;;;;;5.35;1.77;;;29.20;30.90;;;;;;5071050;28;20074;-55
2022/06/14 12:34:41;;;;;;;7.90;2.70;;;28.40;35.70;;;;;;5074574;28;20437;-55
2022/06/14 12:37:28;;;;;;;3.13;1.25;;;29.50;34.50;;;;;;5074933;28;20032;-55
2022/06/14 12:40:04;;;;;;;3.80;1.25;;;29.00;34.00;;;;;;5070515;28;20068;-55
2022/06/14 12:42:58;;;;;;;14.95;3.40;;;29.20;30.10;;;;;;5068990;28;20037;-55
2022/06/14 12:45:38;;;;;;;7.93;1.60;;;28.80;32.10;;;;;;5068856;28;20032;-55
2022/06/14 12:48:18;;;;;;;4.25;1.60;;;28.30;32.50;;;;;;5075259;28;20024;-55
2022/06/14 12:50:56;;;;;;;10.52;3.05;;;28.50;35.10;;;;;;5075700;28;20024;-55
2022/06/14 12:53:45;;;;;;;6.32;1.50;;;29.20;35.70;;;;;;5073281;28;20036;-55
2022/06/14 12:56:36;;;;;;;5.15;1.50;;;29.90;36.80;;;;;;5072416;28;20035;-55
2022/06/14 12:59:29;;;;;;;3.05;1.48;;;30.00;32.10;;;;;;5065296;28;20519;-55
2022/06/14 13:02:23;;;;;;;8.55;2.45;;;30.10;32.00;;;;;;5062178;28;20036;-55
2022/06/14 13:05:05;;;;;;;10.43;2.75;;;29.90;34.20;;;;;;5072930;28;20056;-55
2022/06/14 13:08:00;;;;;;;7.80;2.03;;;30.00;34.60;;;;;;5073736;28;20028;-55
2022/06/14 13:10:51;;;;;;;2.78;1.52;;;30.10;31.90;;;;;;5073884;28;20382;-55
2022/06/14 13:13:26;;;;;;;12.80;3.08;;;29.90;32.30;;;;;;5074455;28;20047;-55
2022/06/14 13:15:59;;;;;;;7.28;2.97;;;29.60;31.50;;;;;;5075056;28;20037;-54
2022/06/14 13:18:54;;;;;;;3.38;1.73;;;28.80;32.70;;;;;;5072761;28;20031;-55
2022/06/14 13:21:35;;;;;;;4.07;1.48;;;29.30;33.60;;;;;;5071641;28;20024;-54
2022/06/14 13:24:16;;;;;;;3.92;1.58;;;28.90;32.80;;;;;;5073983;28;20032;-54
2022/06/14 13:27:12;;;;;;;6.82;2.00;;;28.70;32.90;;;;;;5073731;28;20496;-55
2022/06/14 13:30:00;;;;;;;4.32;1.63;;;28.60;32.70;;;;;;5062850;28;20016;-54
2022/06/14 13:32:35;;;;;;;8.38;2.53;;;28.80;35.00;;;;;;5073462;28;20020;-54
2022/06/14 13:35:46;;;;;;;5.38;2.03;;;29.00;33.00;;;;;;5072559;28;20028;-54
2022/06/14 13:38:37;;;;;;;8.00;2.22;;;28.30;34.70;;;;;;5013159;28;20073;-54
2022/06/14 13:41:27;;;;;;;8.27;2.83;;;28.50;38.10;;;;;;5030508;28;20029;-54
2022/06/14 13:43:59;;;;;;;5.85;2.20;;;28.60;35.50;;;;;;5031805;28;20033;-54
2022/06/14 13:46:27;;;;;;;6.65;2.10;;;28.40;34.20;;;;;;5030901;28;20038;-54
2022/06/14 13:49:04;;;;;;;3.38;1.60;;;27.30;34.20;;;;;;5032023;28;20080;-54
2022/06/14 13:51:53;;;;;;;2.97;1.52;;;27.50;38.40;;;;;;5030493;28;20391;-54
2022/06/14 13:54:41;;;;;;;6.13;2.25;;;27.80;36.00;;;;;;5030695;28;20029;-54
2022/06/14 13:57:13;;;;;;;5.68;1.73;;;27.70;35.80;;;;;;5031335;28;20528;-54
2022/06/14 13:59:44;;;;;;;7.35;2.22;;;27.70;37.10;;;;;;5031571;28;20109;-54